sensor_id;sensor_type;location;lat;lon;timestamp;temperature;humidity
19947;DHT22;10135;50.702;7.276;2022-10-22T05:31:11;17.30;71.70
19947;DHT22;10135;50.702;7.276;2022-10-22T05:33:13;17.30;71.70
19947;DHT22;10135;50.702;7.276;2022-10-22T05:35:13;17.30;71.70
19947;DHT22;10135;50.702;7.276;2022-10-22T05:37:14;17.30;71.70
19947;DHT22;10135;50.702;7.276;2022-10-22T05:39:15;17.30;71.70
19947;DHT22;10135;50.702;7.276;2022-10-22T05:41:20;17.30;71.70
19947;DHT22;10135;50.702;7.276;2022-10-22T05:43:22;17.20;71.60
19947;DHT22;10135;50.702;7.276;2022-10-22T05:45:23;17.20;71.50
19947;DHT22;10135;50.702;7.276;2022-10-22T05:47:23;17.20;71.60
19947;DHT22;10135;50.702;7.276;2022-10-22T05:49:24;17.20;71.50
19947;DHT22;10135;50.702;7.276;2022-10-22T05:51:26;17.20;71.60
19947;DHT22;10135;50.702;7.276;2022-10-22T05:53:29;17.20;71.70
19947;DHT22;10135;50.702;7.276;2022-10-22T05:55:35;17.20;71.60
19947;DHT22;10135;50.702;7.276;2022-10-22T05:57:36;17.10;71.60
19947;DHT22;10135;50.702;7.276;2022-10-22T05:59:39;17.20;71.70
19947;DHT22;10135;50.702;7.276;2022-10-22T06:01:39;17.10;71.70
19947;DHT22;10135;50.702;7.276;2022-10-22T06:03:41;17.10;71.70
19947;DHT22;10135;50.702;7.276;2022-10-22T06:05:42;17.10;71.70
19947;DHT22;10135;50.702;7.276;2022-10-22T06:07:43;17.10;71.70
19947;DHT22;10135;50.702;7.276;2022-10-22T06:09:43;17.10;71.70
19947;DHT22;10135;50.702;7.276;2022-10-22T06:11:45;17.10;71.70
19947;DHT22;10135;50.702;7.276;2022-10-22T06:13:47;17.10;71.70
19947;DHT22;10135;50.702;7.276;2022-10-22T06:15:49;17.10;71.70
19947;DHT22;10135;50.702;7.276;2022-10-22T06:17:51;17.10;71.80
19947;DHT22;10135;50.702;7.276;2022-10-22T06:19:52;17.10;71.70
19947;DHT22;10135;50.702;7.276;2022-10-22T06:21:53;17.00;71.70
19947;DHT22;10135;50.702;7.276;2022-10-22T06:23:58;17.10;71.80
19947;DHT22;10135;50.702;7.276;2022-10-22T06:26:00;17.10;71.90
19947;DHT22;10135;50.702;7.276;2022-10-22T06:28:01;17.10;71.70
19947;DHT22;10135;50.702;7.276;2022-10-22T06:30:03;17.10;71.80
19947;DHT22;10135;50.702;7.276;2022-10-22T06:32:04;17.10;71.70
19947;DHT22;10135;50.702;7.276;2022-10-22T06:34:06;17.10;71.80
19947;DHT22;10135;50.702;7.276;2022-10-22T06:36:15;17.10;71.90
19947;DHT22;10135;50.702;7.276;2022-10-22T06:38:20;17.10;71.90
19947;DHT22;10135;50.702;7.276;2022-10-22T06:40:21;17.20;72.00
19947;DHT22;10135;50.702;7.276;2022-10-22T06:42:22;17.20;72.00
19947;DHT22;10135;50.702;7.276;2022-10-22T06:44:23;17.30;72.00
19947;DHT22;10135;50.702;7.276;2022-10-22T06:46:24;17.30;71.90
19947;DHT22;10135;50.702;7.276;2022-10-22T06:48:25;17.40;72.00
19947;DHT22;10135;50.702;7.276;2022-10-22T06:50:26;17.40;71.90
19947;DHT22;10135;50.702;7.276;2022-10-22T06:52:26;17.50;72.00
19947;DHT22;10135;50.702;7.276;2022-10-22T06:54:27;17.50;71.80
19947;DHT22;10135;50.702;7.276;2022-10-22T06:56:28;17.60;71.80
19947;DHT22;10135;50.702;7.276;2022-10-22T06:58:29;17.60;71.80
19947;DHT22;10135;50.702;7.276;2022-10-22T07:00:29;17.70;71.80
19947;DHT22;10135;50.702;7.276;2022-10-22T07:02:30;17.80;71.80
19947;DHT22;10135;50.702;7.276;2022-10-22T07:04:30;17.80;71.70
19947;DHT22;10135;50.702;7.276;2022-10-22T07:06:31;17.90;71.60
19947;DHT22;10135;50.702;7.276;2022-10-22T07:08:32;17.90;71.40
19947;DHT22;10135;50.702;7.276;2022-10-22T07:10:33;18.00;71.40
19947;DHT22;10135;50.702;7.276;2022-10-22T07:12:34;18.10;71.20
19947;DHT22;10135;50.702;7.276;2022-10-22T07:14:34;18.10;71.10
19947;DHT22;10135;50.702;7.276;2022-10-22T07:16:35;18.20;71.00
19947;DHT22;10135;50.702;7.276;2022-10-22T07:18:38;18.20;70.90
19947;DHT22;10135;50.702;7.276;2022-10-22T07:20:39;18.20;70.80
19947;DHT22;10135;50.702;7.276;2022-10-22T07:22:40;18.30;70.80
19947;DHT22;10135;50.702;7.276;2022-10-22T07:24:40;18.30;70.70
19947;DHT22;10135;50.702;7.276;2022-10-22T07:26:41;18.30;70.60
19947;DHT22;10135;50.702;7.276;2022-10-22T07:28:42;18.30;70.50
19947;DHT22;10135;50.702;7.276;2022-10-22T07:30:43;18.30;70.40
19947;DHT22;10135;50.702;7.276;2022-10-22T07:32:44;18.30;70.40
19947;DHT22;10135;50.702;7.276;2022-10-22T07:34:44;18.30;70.30
19947;DHT22;10135;50.702;7.276;2022-10-22T07:36:45;18.30;70.20
19947;DHT22;10135;50.702;7.276;2022-10-22T07:38:48;18.30;70.20
19947;DHT22;10135;50.702;7.276;2022-10-22T07:40:54;18.30;70.20
19947;DHT22;10135;50.702;7.276;2022-10-22T07:42:54;18.30;70.10
19947;DHT22;10135;50.702;7.276;2022-10-22T07:44:55;18.40;70.20
19947;DHT22;10135;50.702;7.276;2022-10-22T07:46:56;18.40;70.20
19947;DHT22;10135;50.702;7.276;2022-10-22T07:48:56;18.40;70.20
19947;DHT22;10135;50.702;7.276;2022-10-22T07:50:57;18.40;70.20
19947;DHT22;10135;50.702;7.276;2022-10-22T07:52:58;18.40;70.10
19947;DHT22;10135;50.702;7.276;2022-10-22T07:54:58;18.40;70.00
19947;DHT22;10135;50.702;7.276;2022-10-22T07:56:59;18.40;70.00
19947;DHT22;10135;50.702;7.276;2022-10-22T07:59:00;18.40;70.00
19947;DHT22;10135;50.702;7.276;2022-10-22T08:01:01;18.50;70.10
19947;DHT22;10135;50.702;7.276;2022-10-22T08:03:04;18.50;70.00
19947;DHT22;10135;50.702;7.276;2022-10-22T08:05:06;18.50;69.90
19947;DHT22;10135;50.702;7.276;2022-10-22T08:07:07;18.60;70.00
19947;DHT22;10135;50.702;7.276;2022-10-22T08:09:07;18.60;69.90
19947;DHT22;10135;50.702;7.276;2022-10-22T08:11:09;18.70;69.80
19947;DHT22;10135;50.702;7.276;2022-10-22T08:13:10;18.70;69.70
19947;DHT22;10135;50.702;7.276;2022-10-22T08:15:11;18.70;69.60
19947;DHT22;10135;50.702;7.276;2022-10-22T08:17:11;18.80;69.60
19947;DHT22;10135;50.702;7.276;2022-10-22T08:19:12;18.80;69.50
19947;DHT22;10135;50.702;7.276;2022-10-22T08:21:17;18.80;69.40
19947;DHT22;10135;50.702;7.276;2022-10-22T08:23:18;18.80;69.40
19947;DHT22;10135;50.702;7.276;2022-10-22T08:25:20;18.80;69.30
19947;DHT22;10135;50.702;7.276;2022-10-22T08:27:20;18.80;69.20
19947;DHT22;10135;50.702;7.276;2022-10-22T08:29:25;18.90;69.20
19947;DHT22;10135;50.702;7.276;2022-10-22T08:31:26;18.90;68.90
19947;DHT22;10135;50.702;7.276;2022-10-22T08:33:26;18.90;69.30
19947;DHT22;10135;50.702;7.276;2022-10-22T08:35:27;19.00;69.40
19947;DHT22;10135;50.702;7.276;2022-10-22T08:37:28;19.00;69.40
19947;DHT22;10135;50.702;7.276;2022-10-22T08:39:28;19.10;69.60
19947;DHT22;10135;50.702;7.276;2022-10-22T08:41:29;19.20;69.70
19947;DHT22;10135;50.702;7.276;2022-10-22T08:43:42;19.40;69.80
19947;DHT22;10135;50.702;7.276;2022-10-22T08:46:24;19.50;70.50
19947;DHT22;10135;50.702;7.276;2022-10-22T08:48:43;19.80;69.10
19947;DHT22;10135;50.702;7.276;2022-10-22T08:50:49;20.00;69.20
19947;DHT22;10135;50.702;7.276;2022-10-22T08:52:56;20.20;69.50
19947;DHT22;10135;50.702;7.276;2022-10-22T08:55:02;20.40;69.00
19947;DHT22;10135;50.702;7.276;2022-10-22T09:07:41;21.00;66.70
19947;DHT22;10135;50.702;7.276;2022-10-22T09:09:48;21.10;67.90
19947;DHT22;10135;50.702;7.276;2022-10-22T09:11:52;21.10;66.90
19947;DHT22;10135;50.702;7.276;2022-10-22T09:13:56;21.20;67.10
19947;DHT22;10135;50.702;7.276;2022-10-22T09:16:01;21.10;66.90
19947;DHT22;10135;50.702;7.276;2022-10-22T09:26:03;21.20;65.80
19947;DHT22;10135;50.702;7.276;2022-10-22T09:28:12;21.20;66.50
19947;DHT22;10135;50.702;7.276;2022-10-22T09:30:22;21.20;66.30
19947;DHT22;10135;50.702;7.276;2022-10-22T09:32:42;21.20;65.40
19947;DHT22;10135;50.702;7.276;2022-10-22T09:34:45;21.10;65.90
19947;DHT22;10135;50.702;7.276;2022-10-22T09:36:47;21.00;65.70
19947;DHT22;10135;50.702;7.276;2022-10-22T09:38:57;21.00;65.60
19947;DHT22;10135;50.702;7.276;2022-10-22T09:41:00;20.80;65.50
19947;DHT22;10135;50.702;7.276;2022-10-22T09:43:02;20.80;65.60
19947;DHT22;10135;50.702;7.276;2022-10-22T09:45:03;20.70;65.70
19947;DHT22;10135;50.702;7.276;2022-10-22T09:47:27;20.70;65.70
19947;DHT22;10135;50.702;7.276;2022-10-22T09:49:38;20.60;64.90
19947;DHT22;10135;50.702;7.276;2022-10-22T09:51:47;20.50;65.80
19947;DHT22;10135;50.702;7.276;2022-10-22T09:54:00;20.40;65.50
19947;DHT22;10135;50.702;7.276;2022-10-22T09:56:08;20.40;65.50
19947;DHT22;10135;50.702;7.276;2022-10-22T09:58:17;20.30;65.40
19947;DHT22;10135;50.702;7.276;2022-10-22T10:00:20;20.30;65.80
19947;DHT22;10135;50.702;7.276;2022-10-22T10:02:27;20.30;66.60
19947;DHT22;10135;50.702;7.276;2022-10-22T10:04:33;20.30;65.50
19947;DHT22;10135;50.702;7.276;2022-10-22T10:06:36;20.30;65.50
19947;DHT22;10135;50.702;7.276;2022-10-22T10:08:39;20.20;65.70
19947;DHT22;10135;50.702;7.276;2022-10-22T10:10:55;20.20;65.90
19947;DHT22;10135;50.702;7.276;2022-10-22T10:13:08;20.30;65.20
19947;DHT22;10135;50.702;7.276;2022-10-22T10:15:27;20.30;65.40
19947;DHT22;10135;50.702;7.276;2022-10-22T10:22:54;20.30;65.20
19947;DHT22;10135;50.702;7.276;2022-10-22T10:27:46;20.30;65.80
19947;DHT22;10135;50.702;7.276;2022-10-22T10:30:16;20.40;65.70
19947;DHT22;10135;50.702;7.276;2022-10-22T10:40:44;20.40;65.10
19947;DHT22;10135;50.702;7.276;2022-10-22T10:43:01;20.50;64.70
19947;DHT22;10135;50.702;7.276;2022-10-22T10:45:35;20.40;64.60
19947;DHT22;10135;50.702;7.276;2022-10-22T10:53:25;20.50;64.40
19947;DHT22;10135;50.702;7.276;2022-10-22T10:55:40;20.50;64.90
19947;DHT22;10135;50.702;7.276;2022-10-22T11:00:24;20.50;64.30
19947;DHT22;10135;50.702;7.276;2022-10-22T11:03:03;20.50;65.10
19947;DHT22;10135;50.702;7.276;2022-10-22T11:08:03;20.50;64.10
19947;DHT22;10135;50.702;7.276;2022-10-22T11:10:20;20.50;64.20
19947;DHT22;10135;50.702;7.276;2022-10-22T11:12:33;20.50;64.50
19947;DHT22;10135;50.702;7.276;2022-10-22T11:14:45;20.50;64.60
19947;DHT22;10135;50.702;7.276;2022-10-22T11:19:28;20.50;64.50
19947;DHT22;10135;50.702;7.276;2022-10-22T11:21:52;20.50;64.70
19947;DHT22;10135;50.702;7.276;2022-10-22T11:26:17;20.50;64.90
19947;DHT22;10135;50.702;7.276;2022-10-22T11:28:33;20.50;64.40
19947;DHT22;10135;50.702;7.276;2022-10-22T11:30:50;20.50;64.30
19947;DHT22;10135;50.702;7.276;2022-10-22T11:33:04;20.50;64.50
19947;DHT22;10135;50.702;7.276;2022-10-22T11:35:15;20.50;64.20
19947;DHT22;10135;50.702;7.276;2022-10-22T11:37:21;20.50;64.00
19947;DHT22;10135;50.702;7.276;2022-10-22T11:39:57;20.50;65.10
19947;DHT22;10135;50.702;7.276;2022-10-22T11:42:08;20.50;63.80
19947;DHT22;10135;50.702;7.276;2022-10-22T11:44:20;20.50;64.50
19947;DHT22;10135;50.702;7.276;2022-10-22T11:48:26;20.50;64.50
19947;DHT22;10135;50.702;7.276;2022-10-22T11:53:03;20.50;63.90
19947;DHT22;10135;50.702;7.276;2022-10-22T11:55:29;20.60;64.00
19947;DHT22;10135;50.702;7.276;2022-10-22T11:57:36;20.60;63.90
19947;DHT22;10135;50.702;7.276;2022-10-22T11:59:41;20.60;64.30
19947;DHT22;10135;50.702;7.276;2022-10-22T12:01:47;20.60;64.50
19947;DHT22;10135;50.702;7.276;2022-10-22T12:08:16;20.70;63.80
19947;DHT22;10135;50.702;7.276;2022-10-22T12:10:25;20.70;64.00
19947;DHT22;10135;50.702;7.276;2022-10-22T12:12:35;20.70;64.20
19947;DHT22;10135;50.702;7.276;2022-10-22T12:14:52;20.80;63.80
19947;DHT22;10135;50.702;7.276;2022-10-22T12:16:58;20.80;63.60
19947;DHT22;10135;50.702;7.276;2022-10-22T12:21:41;20.80;62.90
19947;DHT22;10135;50.702;7.276;2022-10-22T12:23:48;20.70;63.50
19947;DHT22;10135;50.702;7.276;2022-10-22T12:25:50;20.70;63.40
19947;DHT22;10135;50.702;7.276;2022-10-22T12:27:56;20.70;63.40
19947;DHT22;10135;50.702;7.276;2022-10-22T12:30:00;20.60;62.90
19947;DHT22;10135;50.702;7.276;2022-10-22T12:32:03;20.70;63.40
19947;DHT22;10135;50.702;7.276;2022-10-22T12:34:04;20.60;63.40
19947;DHT22;10135;50.702;7.276;2022-10-22T12:36:05;20.70;63.60
19947;DHT22;10135;50.702;7.276;2022-10-22T12:38:16;20.70;63.60
19947;DHT22;10135;50.702;7.276;2022-10-22T12:42:24;20.80;63.50
19947;DHT22;10135;50.702;7.276;2022-10-22T12:44:24;20.90;63.50
19947;DHT22;10135;50.702;7.276;2022-10-22T12:46:26;21.00;63.60
19947;DHT22;10135;50.702;7.276;2022-10-22T12:48:32;21.00;63.40
19947;DHT22;10135;50.702;7.276;2022-10-22T12:50:41;21.10;63.20
19947;DHT22;10135;50.702;7.276;2022-10-22T12:52:44;21.20;63.20
19947;DHT22;10135;50.702;7.276;2022-10-22T12:54:47;21.30;63.20
19947;DHT22;10135;50.702;7.276;2022-10-22T12:56:52;21.40;63.00
19947;DHT22;10135;50.702;7.276;2022-10-22T12:59:04;21.40;62.70
19947;DHT22;10135;50.702;7.276;2022-10-22T13:01:14;21.50;62.30
19947;DHT22;10135;50.702;7.276;2022-10-22T13:03:25;21.50;62.30
19947;DHT22;10135;50.702;7.276;2022-10-22T13:05:33;21.60;61.70
19947;DHT22;10135;50.702;7.276;2022-10-22T13:07:41;21.60;61.90
19947;DHT22;10135;50.702;7.276;2022-10-22T13:12:02;21.60;61.90
19947;DHT22;10135;50.702;7.276;2022-10-22T13:14:19;21.60;62.00
19947;DHT22;10135;50.702;7.276;2022-10-22T13:16:25;21.60;61.90
19947;DHT22;10135;50.702;7.276;2022-10-22T13:18:32;21.50;61.90
19947;DHT22;10135;50.702;7.276;2022-10-22T13:20:33;21.50;61.20
19947;DHT22;10135;50.702;7.276;2022-10-22T13:22:39;21.50;61.70
19947;DHT22;10135;50.702;7.276;2022-10-22T13:24:48;21.50;61.50
19947;DHT22;10135;50.702;7.276;2022-10-22T13:26:52;21.50;61.00
19947;DHT22;10135;50.702;7.276;2022-10-22T13:28:55;21.40;61.50
19947;DHT22;10135;50.702;7.276;2022-10-22T13:31:13;21.40;61.50
19947;DHT22;10135;50.702;7.276;2022-10-22T13:33:34;21.40;61.00
19947;DHT22;10135;50.702;7.276;2022-10-22T13:35:37;21.40;60.60
19947;DHT22;10135;50.702;7.276;2022-10-22T13:37:38;21.40;61.40
19947;DHT22;10135;50.702;7.276;2022-10-22T13:39:38;21.40;61.30
19947;DHT22;10135;50.702;7.276;2022-10-22T13:41:39;21.40;61.20
19947;DHT22;10135;50.702;7.276;2022-10-22T13:43:39;21.40;61.20
19947;DHT22;10135;50.702;7.276;2022-10-22T13:45:40;21.30;61.20
19947;DHT22;10135;50.702;7.276;2022-10-22T13:47:45;21.30;61.20
19947;DHT22;10135;50.702;7.276;2022-10-22T13:49:51;21.30;61.00
19947;DHT22;10135;50.702;7.276;2022-10-22T13:51:53;21.30;61.20
19947;DHT22;10135;50.702;7.276;2022-10-22T13:53:54;21.30;61.10
19947;DHT22;10135;50.702;7.276;2022-10-22T13:55:54;21.30;61.10
19947;DHT22;10135;50.702;7.276;2022-10-22T13:58:09;21.30;61.00
19947;DHT22;10135;50.702;7.276;2022-10-22T14:00:15;21.30;60.80
19947;DHT22;10135;50.702;7.276;2022-10-22T14:02:20;21.30;60.60
19947;DHT22;10135;50.702;7.276;2022-10-22T14:04:24;21.30;61.00
19947;DHT22;10135;50.702;7.276;2022-10-22T14:06:26;21.30;60.90
19947;DHT22;10135;50.702;7.276;2022-10-22T14:08:30;21.30;60.90
19947;DHT22;10135;50.702;7.276;2022-10-22T14:10:31;21.30;60.90
19947;DHT22;10135;50.702;7.276;2022-10-22T14:12:32;21.30;60.80
19947;DHT22;10135;50.702;7.276;2022-10-22T14:14:32;21.20;60.80
19947;DHT22;10135;50.702;7.276;2022-10-22T14:16:33;21.20;60.80
19947;DHT22;10135;50.702;7.276;2022-10-22T14:18:36;21.20;60.70
19947;DHT22;10135;50.702;7.276;2022-10-22T14:20:39;21.20;60.70
19947;DHT22;10135;50.702;7.276;2022-10-22T14:22:41;21.20;60.60
19947;DHT22;10135;50.702;7.276;2022-10-22T14:24:42;21.20;60.70
19947;DHT22;10135;50.702;7.276;2022-10-22T14:26:43;21.20;60.70
19947;DHT22;10135;50.702;7.276;2022-10-22T14:28:43;21.20;60.70
19947;DHT22;10135;50.702;7.276;2022-10-22T14:30:45;21.20;60.80
19947;DHT22;10135;50.702;7.276;2022-10-22T14:32:46;21.20;60.70
19947;DHT22;10135;50.702;7.276;2022-10-22T14:34:48;21.20;60.70
19947;DHT22;10135;50.702;7.276;2022-10-22T14:36:48;21.20;60.60
19947;DHT22;10135;50.702;7.276;2022-10-22T14:38:49;21.20;60.50
19947;DHT22;10135;50.702;7.276;2022-10-22T14:40:50;21.20;60.50
19947;DHT22;10135;50.702;7.276;2022-10-22T14:42:50;21.20;60.50
19947;DHT22;10135;50.702;7.276;2022-10-22T14:44:51;21.20;60.50
19947;DHT22;10135;50.702;7.276;2022-10-22T14:46:52;21.20;60.50
19947;DHT22;10135;50.702;7.276;2022-10-22T14:48:55;21.20;60.40
19947;DHT22;10135;50.702;7.276;2022-10-22T14:50:56;21.20;60.40
19947;DHT22;10135;50.702;7.276;2022-10-22T14:52:56;21.20;60.30
19947;DHT22;10135;50.702;7.276;2022-10-22T14:54:59;21.10;60.30
19947;DHT22;10135;50.702;7.276;2022-10-22T14:57:03;21.10;60.30
19947;DHT22;10135;50.702;7.276;2022-10-22T14:59:04;21.10;60.30
19947;DHT22;10135;50.702;7.276;2022-10-22T15:01:06;21.10;60.20
19947;DHT22;10135;50.702;7.276;2022-10-22T15:03:07;21.10;60.30
19947;DHT22;10135;50.702;7.276;2022-10-22T15:05:08;21.10;60.30
19947;DHT22;10135;50.702;7.276;2022-10-22T15:07:08;21.10;60.30
19947;DHT22;10135;50.702;7.276;2022-10-22T15:09:09;21.10;60.30
19947;DHT22;10135;50.702;7.276;2022-10-22T15:11:11;21.10;60.30
19947;DHT22;10135;50.702;7.276;2022-10-22T15:13:12;21.10;60.30
19947;DHT22;10135;50.702;7.276;2022-10-22T15:15:13;21.10;60.30
19947;DHT22;10135;50.702;7.276;2022-10-22T15:17:15;21.10;60.30
19947;DHT22;10135;50.702;7.276;2022-10-22T15:19:16;21.10;60.30
19947;DHT22;10135;50.702;7.276;2022-10-22T15:21:20;21.10;60.30
19947;DHT22;10135;50.702;7.276;2022-10-22T15:23:22;21.00;60.20
19947;DHT22;10135;50.702;7.276;2022-10-22T15:25:23;21.00;60.20
19947;DHT22;10135;50.702;7.276;2022-10-22T15:27:23;21.00;60.20
19947;DHT22;10135;50.702;7.276;2022-10-22T15:29:24;21.00;60.30
19947;DHT22;10135;50.702;7.276;2022-10-22T15:31:53;21.00;60.20
19947;DHT22;10135;50.702;7.276;2022-10-22T15:33:57;21.00;59.90
19947;DHT22;10135;50.702;7.276;2022-10-22T15:35:57;21.00;60.20
19947;DHT22;10135;50.702;7.276;2022-10-22T15:37:58;20.90;60.20
19947;DHT22;10135;50.702;7.276;2022-10-22T15:39:59;20.90;60.20
19947;DHT22;10135;50.702;7.276;2022-10-22T15:41:59;20.90;60.30
19947;DHT22;10135;50.702;7.276;2022-10-22T15:44:00;20.90;60.20
19947;DHT22;10135;50.702;7.276;2022-10-22T15:46:16;20.80;60.20
19947;DHT22;10135;50.702;7.276;2022-10-22T15:48:18;20.80;59.90
19947;DHT22;10135;50.702;7.276;2022-10-22T15:50:18;20.80;60.10
19947;DHT22;10135;50.702;7.276;2022-10-22T15:52:19;20.80;60.30
19947;DHT22;10135;50.702;7.276;2022-10-22T15:54:25;20.70;60.20
19947;DHT22;10135;50.702;7.276;2022-10-22T15:56:28;20.70;60.20
19947;DHT22;10135;50.702;7.276;2022-10-22T15:58:29;20.70;60.30
19947;DHT22;10135;50.702;7.276;2022-10-22T16:00:31;20.70;60.30
19947;DHT22;10135;50.702;7.276;2022-10-22T16:02:32;20.60;60.30
19947;DHT22;10135;50.702;7.276;2022-10-22T16:04:33;20.60;60.40
19947;DHT22;10135;50.702;7.276;2022-10-22T16:06:37;20.50;60.30
19947;DHT22;10135;50.702;7.276;2022-10-22T16:08:40;20.50;60.40
19947;DHT22;10135;50.702;7.276;2022-10-22T16:10:44;20.50;60.40
19947;DHT22;10135;50.702;7.276;2022-10-22T16:12:46;20.40;60.40
19947;DHT22;10135;50.702;7.276;2022-10-22T16:14:49;20.40;60.40
19947;DHT22;10135;50.702;7.276;2022-10-22T16:16:52;20.40;60.50
19947;DHT22;10135;50.702;7.276;2022-10-22T16:18:53;20.30;60.40
19947;DHT22;10135;50.702;7.276;2022-10-22T16:20:54;20.30;60.50
19947;DHT22;10135;50.702;7.276;2022-10-22T16:22:55;20.20;60.50
19947;DHT22;10135;50.702;7.276;2022-10-22T16:24:56;20.20;60.50
19947;DHT22;10135;50.702;7.276;2022-10-22T16:26:56;20.20;60.60
19947;DHT22;10135;50.702;7.276;2022-10-22T16:28:58;20.20;60.70
19947;DHT22;10135;50.702;7.276;2022-10-22T16:31:03;20.10;60.70
19947;DHT22;10135;50.702;7.276;2022-10-22T16:33:06;20.10;60.70
19947;DHT22;10135;50.702;7.276;2022-10-22T16:35:07;20.10;60.80
19947;DHT22;10135;50.702;7.276;2022-10-22T16:37:08;20.00;60.70
19947;DHT22;10135;50.702;7.276;2022-10-22T16:39:09;20.00;60.70
19947;DHT22;10135;50.702;7.276;2022-10-22T16:41:24;20.00;60.70
19947;DHT22;10135;50.702;7.276;2022-10-22T16:43:25;19.90;60.70
19947;DHT22;10135;50.702;7.276;2022-10-22T16:45:28;19.90;60.70
19947;DHT22;10135;50.702;7.276;2022-10-22T16:47:29;19.90;60.80
19947;DHT22;10135;50.702;7.276;2022-10-22T16:49:29;19.80;60.80
19947;DHT22;10135;50.702;7.276;2022-10-22T16:51:30;19.80;60.80
19947;DHT22;10135;50.702;7.276;2022-10-22T16:53:31;19.80;60.90
19947;DHT22;10135;50.702;7.276;2022-10-22T16:55:35;19.80;60.90
19947;DHT22;10135;50.702;7.276;2022-10-22T16:57:36;19.70;60.90
19947;DHT22;10135;50.702;7.276;2022-10-22T16:59:37;19.70;61.00
19947;DHT22;10135;50.702;7.276;2022-10-22T17:01:38;19.70;61.00
19947;DHT22;10135;50.702;7.276;2022-10-22T17:03:38;19.70;61.10
19947;DHT22;10135;50.702;7.276;2022-10-22T17:05:39;19.60;61.00
19947;DHT22;10135;50.702;7.276;2022-10-22T17:07:40;19.60;61.10
19947;DHT22;10135;50.702;7.276;2022-10-22T17:09:40;19.60;61.20
19947;DHT22;10135;50.702;7.276;2022-10-22T17:11:41;19.50;61.10
19947;DHT22;10135;50.702;7.276;2022-10-22T17:13:43;19.50;61.20
19947;DHT22;10135;50.702;7.276;2022-10-22T17:15:45;19.50;61.20
19947;DHT22;10135;50.702;7.276;2022-10-22T17:17:46;19.50;61.20
19947;DHT22;10135;50.702;7.276;2022-10-22T17:19:51;19.50;61.30
19947;DHT22;10135;50.702;7.276;2022-10-22T17:21:52;19.40;61.20
19947;DHT22;10135;50.702;7.276;2022-10-22T17:23:56;19.40;61.30
19947;DHT22;10135;50.702;7.276;2022-10-22T17:26:05;19.40;61.30
19947;DHT22;10135;50.702;7.276;2022-10-22T17:28:09;19.40;61.40
19947;DHT22;10135;50.702;7.276;2022-10-22T17:30:17;19.40;61.50
19947;DHT22;10135;50.702;7.276;2022-10-22T17:32:19;19.40;61.50
19947;DHT22;10135;50.702;7.276;2022-10-22T17:34:20;19.40;61.50
19947;DHT22;10135;50.702;7.276;2022-10-22T17:36:21;19.40;61.50
19947;DHT22;10135;50.702;7.276;2022-10-22T17:38:23;19.40;61.50
19947;DHT22;10135;50.702;7.276;2022-10-22T17:40:24;19.30;61.50
19947;DHT22;10135;50.702;7.276;2022-10-22T17:42:26;19.40;61.60
19947;DHT22;10135;50.702;7.276;2022-10-22T17:44:27;19.40;61.60
19947;DHT22;10135;50.702;7.276;2022-10-22T17:46:30;19.30;61.60
19947;DHT22;10135;50.702;7.276;2022-10-22T17:48:31;19.30;61.60
19947;DHT22;10135;50.702;7.276;2022-10-22T17:50:33;19.30;61.60
19947;DHT22;10135;50.702;7.276;2022-10-22T17:52:34;19.30;61.60
19947;DHT22;10135;50.702;7.276;2022-10-22T17:54:36;19.30;61.60
19947;DHT22;10135;50.702;7.276;2022-10-22T17:56:36;19.30;61.60
19947;DHT22;10135;50.702;7.276;2022-10-22T17:58:39;19.30;61.70
19947;DHT22;10135;50.702;7.276;2022-10-22T18:00:40;19.30;61.60
19947;DHT22;10135;50.702;7.276;2022-10-22T18:02:40;19.30;61.60
19947;DHT22;10135;50.702;7.276;2022-10-22T18:04:42;19.30;61.60
19947;DHT22;10135;50.702;7.276;2022-10-22T18:06:44;19.30;61.70
19947;DHT22;10135;50.702;7.276;2022-10-22T18:08:48;19.30;61.70
19947;DHT22;10135;50.702;7.276;2022-10-22T18:10:49;19.30;61.70
19947;DHT22;10135;50.702;7.276;2022-10-22T18:12:49;19.30;61.70
19947;DHT22;10135;50.702;7.276;2022-10-22T18:14:50;19.20;61.60
19947;DHT22;10135;50.702;7.276;2022-10-22T18:16:51;19.20;61.60
19947;DHT22;10135;50.702;7.276;2022-10-22T18:18:54;19.20;61.70
19947;DHT22;10135;50.702;7.276;2022-10-22T18:20:56;19.20;61.70
19947;DHT22;10135;50.702;7.276;2022-10-22T18:22:57;19.20;61.70
19947;DHT22;10135;50.702;7.276;2022-10-22T18:24:57;19.20;61.70
19947;DHT22;10135;50.702;7.276;2022-10-22T18:26:58;19.10;61.70
19947;DHT22;10135;50.702;7.276;2022-10-22T18:28:59;19.10;61.70
19947;DHT22;10135;50.702;7.276;2022-10-22T18:31:04;19.10;61.80
19947;DHT22;10135;50.702;7.276;2022-10-22T18:33:07;19.10;61.80
19947;DHT22;10135;50.702;7.276;2022-10-22T18:35:10;19.10;61.80
19947;DHT22;10135;50.702;7.276;2022-10-22T18:37:11;19.00;61.80
19947;DHT22;10135;50.702;7.276;2022-10-22T18:39:15;19.00;61.80
19947;DHT22;10135;50.702;7.276;2022-10-22T18:41:17;19.00;61.80
19947;DHT22;10135;50.702;7.276;2022-10-22T18:43:17;19.00;61.80
19947;DHT22;10135;50.702;7.276;2022-10-22T18:45:18;18.90;61.80
19947;DHT22;10135;50.702;7.276;2022-10-22T18:47:19;19.00;61.90
19947;DHT22;10135;50.702;7.276;2022-10-22T18:49:19;18.90;61.90
19947;DHT22;10135;50.702;7.276;2022-10-22T18:51:20;18.90;61.90
19947;DHT22;10135;50.702;7.276;2022-10-22T18:53:21;18.90;62.00
19947;DHT22;10135;50.702;7.276;2022-10-22T18:55:22;18.90;62.70
19947;DHT22;10135;50.702;7.276;2022-10-22T18:57:22;18.90;62.00
19947;DHT22;10135;50.702;7.276;2022-10-22T18:59:25;18.90;62.00
19947;DHT22;10135;50.702;7.276;2022-10-22T19:01:26;18.80;62.10
19947;DHT22;10135;50.702;7.276;2022-10-22T19:03:28;18.80;62.10
19947;DHT22;10135;50.702;7.276;2022-10-22T19:05:30;18.80;62.10
19947;DHT22;10135;50.702;7.276;2022-10-22T19:07:30;18.80;62.20
19947;DHT22;10135;50.702;7.276;2022-10-22T19:09:31;18.80;62.20
19947;DHT22;10135;50.702;7.276;2022-10-22T19:11:32;18.70;62.20
19947;DHT22;10135;50.702;7.276;2022-10-22T19:13:33;18.70;62.30
19947;DHT22;10135;50.702;7.276;2022-10-22T19:15:33;18.70;62.30
19947;DHT22;10135;50.702;7.276;2022-10-22T19:17:34;18.70;62.30
19947;DHT22;10135;50.702;7.276;2022-10-22T19:19:35;18.60;62.30
19947;DHT22;10135;50.702;7.276;2022-10-22T19:21:36;18.70;62.40
19947;DHT22;10135;50.702;7.276;2022-10-22T19:23:37;18.60;62.30
19947;DHT22;10135;50.702;7.276;2022-10-22T19:25:38;18.60;62.40
19947;DHT22;10135;50.702;7.276;2022-10-22T19:27:39;18.60;62.50
19947;DHT22;10135;50.702;7.276;2022-10-22T19:29:40;18.60;62.50
19947;DHT22;10135;50.702;7.276;2022-10-22T19:31:41;18.60;62.50
19947;DHT22;10135;50.702;7.276;2022-10-22T19:33:42;18.60;62.50
19947;DHT22;10135;50.702;7.276;2022-10-22T19:35:43;18.60;62.50
19947;DHT22;10135;50.702;7.276;2022-10-22T19:37:43;18.60;62.60
19947;DHT22;10135;50.702;7.276;2022-10-22T19:39:44;18.50;62.50